sensor_id;sensor_type;location;lat;lon;timestamp;pressure;altitude;pressure_sealevel;temperature;humidity
33191;BME280;19554;42.652;23.364;2023-05-11T00:00:15;94848.56;;;9.32;71.17
33191;BME280;19554;42.652;23.364;2023-05-11T00:02:40;94828.66;;;9.19;71.37
33191;BME280;19554;42.652;23.364;2023-05-11T00:05:06;94844.63;;;9.24;71.38
33191;BME280;19554;42.652;23.364;2023-05-11T00:07:32;94832.19;;;9.10;71.38
33191;BME280;19554;42.652;23.364;2023-05-11T00:09:57;94855.03;;;9.21;71.50
33191;BME280;19554;42.652;23.364;2023-05-11T00:12:22;94833.97;;;9.24;71.27
33191;BME280;19554;42.652;23.364;2023-05-11T00:14:48;94838.78;;;9.17;71.17
33191;BME280;19554;42.652;23.364;2023-05-11T00:17:13;94834.53;;;9.16;71.42
33191;BME280;19554;42.652;23.364;2023-05-11T00:19:38;94813.28;;;9.06;71.43
33191;BME280;19554;42.652;23.364;2023-05-11T00:22:04;94831.13;;;9.00;71.81
33191;BME280;19554;42.652;23.364;2023-05-11T00:24:29;94852.06;;;9.22;71.78
33191;BME280;19554;42.652;23.364;2023-05-11T00:26:55;94852.56;;;9.30;71.38
33191;BME280;19554;42.652;23.364;2023-05-11T00:29:20;94850.50;;;9.21;71.30
33191;BME280;19554;42.652;23.364;2023-05-11T00:31:46;94851.56;;;9.15;71.78
33191;BME280;19554;42.652;23.364;2023-05-11T00:34:14;94830.84;;;9.02;72.12
33191;BME280;19554;42.652;23.364;2023-05-11T00:36:40;94864.91;;;9.10;72.14
33191;BME280;19554;42.652;23.364;2023-05-11T00:39:10;94749.06;;;8.32;72.43
33191;BME280;19554;42.652;23.364;2023-05-11T00:41:36;94860.13;;;9.07;72.71
33191;BME280;19554;42.652;23.364;2023-05-11T00:44:02;94819.19;;;8.93;72.25
33191;BME280;19554;42.652;23.364;2023-05-11T00:46:27;94853.72;;;9.08;72.36
33191;BME280;19554;42.652;23.364;2023-05-11T00:48:53;94829.56;;;8.94;72.23
33191;BME280;19554;42.652;23.364;2023-05-11T00:51:20;94838.31;;;9.00;72.40
33191;BME280;19554;42.652;23.364;2023-05-11T00:53:46;94857.47;;;9.07;72.78
33191;BME280;19554;42.652;23.364;2023-05-11T00:56:11;94869.75;;;8.93;73.09
33191;BME280;19554;42.652;23.364;2023-05-11T00:58:37;94872.66;;;9.01;72.69
33191;BME280;19554;42.652;23.364;2023-05-11T01:01:03;94862.81;;;8.97;72.85
33191;BME280;19554;42.652;23.364;2023-05-11T01:03:28;94850.09;;;8.84;73.25
33191;BME280;19554;42.652;23.364;2023-05-11T01:06:05;94855.94;;;8.81;73.70
33191;BME280;19554;42.652;23.364;2023-05-11T01:08:43;94860.69;;;8.89;73.53
33191;BME280;19554;42.652;23.364;2023-05-11T01:11:23;94856.16;;;8.94;73.14
33191;BME280;19554;42.652;23.364;2023-05-11T01:13:59;94856.44;;;8.98;72.75
33191;BME280;19554;42.652;23.364;2023-05-11T01:16:30;94855.88;;;9.01;72.47
33191;BME280;19554;42.652;23.364;2023-05-11T01:19:10;94843.16;;;8.83;72.34
33191;BME280;19554;42.652;23.364;2023-05-11T01:21:38;94863.06;;;8.95;72.34
33191;BME280;19554;42.652;23.364;2023-05-11T01:30:23;94860.69;;;8.94;72.84
33191;BME280;19554;42.652;23.364;2023-05-11T01:32:53;94828.78;;;8.78;72.71
33191;BME280;19554;42.652;23.364;2023-05-11T01:35:21;94829.59;;;8.74;73.21
33191;BME280;19554;42.652;23.364;2023-05-11T01:37:50;94845.81;;;8.88;73.08
33191;BME280;19554;42.652;23.364;2023-05-11T01:40:21;94863.66;;;8.92;73.10
33191;BME280;19554;42.652;23.364;2023-05-11T01:42:50;94854.88;;;8.87;72.97
33191;BME280;19554;42.652;23.364;2023-05-11T01:45:19;94863.63;;;8.97;72.73
33191;BME280;19554;42.652;23.364;2023-05-11T01:47:48;94859.88;;;8.98;71.95
33191;BME280;19554;42.652;23.364;2023-05-11T01:50:16;94866.28;;;8.97;71.73
33191;BME280;19554;42.652;23.364;2023-05-11T01:52:44;94819.75;;;8.74;71.91
33191;BME280;19554;42.652;23.364;2023-05-11T01:55:11;94842.34;;;8.92;71.74
33191;BME280;19554;42.652;23.364;2023-05-11T01:57:38;94830.94;;;8.71;71.81
33191;BME280;19554;42.652;23.364;2023-05-11T02:00:04;94861.78;;;8.77;72.25
33191;BME280;19554;42.652;23.364;2023-05-11T02:02:31;94723.09;;;7.89;71.89
33191;BME280;19554;42.652;23.364;2023-05-11T02:04:58;94830.97;;;8.61;71.38
33191;BME280;19554;42.652;23.364;2023-05-11T02:07:25;94828.59;;;8.49;71.81
33191;BME280;19554;42.652;23.364;2023-05-11T02:09:52;94782.06;;;8.16;71.95
33191;BME280;19554;42.652;23.364;2023-05-11T02:12:19;94853.34;;;8.55;72.06
33191;BME280;19554;42.652;23.364;2023-05-11T02:14:45;94842.97;;;8.48;71.86
33191;BME280;19554;42.652;23.364;2023-05-11T02:17:13;94864.25;;;8.59;71.84
33191;BME280;19554;42.652;23.364;2023-05-11T02:19:41;94846.41;;;8.44;71.88
33191;BME280;19554;42.652;23.364;2023-05-11T02:22:08;94861.84;;;8.47;72.08
33191;BME280;19554;42.652;23.364;2023-05-11T02:24:35;94835.78;;;8.39;71.85
33191;BME280;19554;42.652;23.364;2023-05-11T02:27:01;94856.50;;;8.57;71.67
33191;BME280;19554;42.652;23.364;2023-05-11T02:29:27;94851.22;;;8.52;71.45
33191;BME280;19554;42.652;23.364;2023-05-11T02:31:56;94853.88;;;8.52;71.64
33191;BME280;19554;42.652;23.364;2023-05-11T02:34:28;94859.69;;;8.64;71.20
33191;BME280;19554;42.652;23.364;2023-05-11T02:37:00;94859.44;;;8.50;71.48
33191;BME280;19554;42.652;23.364;2023-05-11T02:39:34;94863.47;;;8.48;71.76
33191;BME280;19554;42.652;23.364;2023-05-11T02:42:22;94843.22;;;8.26;71.85
33191;BME280;19554;42.652;23.364;2023-05-11T02:44:54;94853.31;;;8.35;72.13
33191;BME280;19554;42.652;23.364;2023-05-11T02:47:21;94849.88;;;8.39;71.48
33191;BME280;19554;42.652;23.364;2023-05-11T02:49:54;94854.13;;;8.35;71.32
33191;BME280;19554;42.652;23.364;2023-05-11T02:52:23;94844.28;;;8.46;70.96
33191;BME280;19554;42.652;23.364;2023-05-11T02:54:50;94836.31;;;8.41;71.01
33191;BME280;19554;42.652;23.364;2023-05-11T02:57:17;94813.44;;;8.29;70.90
33191;BME280;19554;42.652;23.364;2023-05-11T02:59:44;94818.50;;;8.51;70.31
33191;BME280;19554;42.652;23.364;2023-05-11T03:02:11;94850.66;;;8.60;70.39
33191;BME280;19554;42.652;23.364;2023-05-11T03:04:38;94848.00;;;8.60;70.39
33191;BME280;19554;42.652;23.364;2023-05-11T03:07:04;94849.06;;;8.59;70.65
33191;BME280;19554;42.652;23.364;2023-05-11T03:09:29;94854.16;;;8.45;70.88
33191;BME280;19554;42.652;23.364;2023-05-11T03:11:55;94849.09;;;8.39;71.08
33191;BME280;19554;42.652;23.364;2023-05-11T03:14:21;94830.97;;;8.30;71.51
33191;BME280;19554;42.652;23.364;2023-05-11T03:16:47;94851.72;;;8.44;71.53
33191;BME280;19554;42.652;23.364;2023-05-11T03:19:13;94845.63;;;8.43;71.55
33191;BME280;19554;42.652;23.364;2023-05-11T03:21:39;94842.72;;;8.45;71.81
33191;BME280;19554;42.652;23.364;2023-05-11T03:24:05;94857.56;;;8.30;72.37
33191;BME280;19554;42.652;23.364;2023-05-11T03:26:32;94794.06;;;7.83;72.75
33191;BME280;19554;42.652;23.364;2023-05-11T03:28:58;94742.19;;;7.45;73.18
33191;BME280;19554;42.652;23.364;2023-05-11T03:31:25;94846.41;;;8.13;73.38
33191;BME280;19554;42.652;23.364;2023-05-11T03:33:50;94859.19;;;8.11;73.28
33191;BME280;19554;42.652;23.364;2023-05-11T03:36:16;94855.19;;;8.19;73.52
33191;BME280;19554;42.652;23.364;2023-05-11T03:38:44;94768.25;;;7.53;73.28
33191;BME280;19554;42.652;23.364;2023-05-11T03:41:14;94776.75;;;7.65;73.69
33191;BME280;19554;42.652;23.364;2023-05-11T03:43:41;94849.34;;;8.22;73.35
33191;BME280;19554;42.652;23.364;2023-05-11T03:46:10;94848.00;;;8.14;73.32
33191;BME280;19554;42.652;23.364;2023-05-11T03:48:39;94842.16;;;8.07;73.31
33191;BME280;19554;42.652;23.364;2023-05-11T03:51:05;94859.72;;;8.18;73.59
33191;BME280;19554;42.652;23.364;2023-05-11T03:53:31;94844.28;;;8.05;73.60
33191;BME280;19554;42.652;23.364;2023-05-11T03:55:57;94794.31;;;7.81;73.03
33191;BME280;19554;42.652;23.364;2023-05-11T03:58:22;94866.63;;;8.24;72.96
33191;BME280;19554;42.652;23.364;2023-05-11T04:00:49;94871.66;;;8.36;72.75
33191;BME280;19554;42.652;23.364;2023-05-11T04:03:15;94876.19;;;8.25;72.72
33191;BME280;19554;42.652;23.364;2023-05-11T04:05:40;94874.06;;;8.17;73.75
33191;BME280;19554;42.652;23.364;2023-05-11T04:08:05;94878.31;;;8.23;73.52
33191;BME280;19554;42.652;23.364;2023-05-11T04:10:31;94870.88;;;8.25;73.36
33191;BME280;19554;42.652;23.364;2023-05-11T04:12:57;94873.53;;;8.30;73.43
33191;BME280;19554;42.652;23.364;2023-05-11T04:15:22;94874.06;;;8.27;73.41
33191;BME280;19554;42.652;23.364;2023-05-11T04:17:48;94879.91;;;8.14;74.02
33191;BME280;19554;42.652;23.364;2023-05-11T04:20:13;94871.66;;;8.16;74.35
33191;BME280;19554;42.652;23.364;2023-05-11T04:22:39;94867.41;;;8.15;74.19
33191;BME280;19554;42.652;23.364;2023-05-11T04:25:04;94845.88;;;8.06;73.98
33191;BME280;19554;42.652;23.364;2023-05-11T04:27:33;94862.63;;;8.27;73.62
33191;BME280;19554;42.652;23.364;2023-05-11T04:29:59;94776.78;;;7.70;73.62
33191;BME280;19554;42.652;23.364;2023-05-11T04:32:24;94855.47;;;8.17;73.82
33191;BME280;19554;42.652;23.364;2023-05-11T04:34:50;94886.84;;;8.41;73.88
33191;BME280;19554;42.652;23.364;2023-05-11T04:37:15;94866.09;;;8.27;73.98
33191;BME280;19554;42.652;23.364;2023-05-11T04:39:41;94890.06;;;8.38;74.35
33191;BME280;19554;42.652;23.364;2023-05-11T04:42:06;94894.03;;;8.40;74.33
33191;BME280;19554;42.652;23.364;2023-05-11T04:44:31;94861.81;;;8.06;75.19
33191;BME280;19554;42.652;23.364;2023-05-11T04:46:57;94867.16;;;8.21;74.86
33191;BME280;19554;42.652;23.364;2023-05-11T04:49:22;94891.63;;;8.44;74.67
33191;BME280;19554;42.652;23.364;2023-05-11T04:51:48;94876.97;;;8.26;75.05
33191;BME280;19554;42.652;23.364;2023-05-11T04:54:13;94899.56;;;8.13;75.81
33191;BME280;19554;42.652;23.364;2023-05-11T04:56:38;94908.09;;;8.15;75.75
33191;BME280;19554;42.652;23.364;2023-05-11T04:59:08;94888.91;;;8.03;76.15
33191;BME280;19554;42.652;23.364;2023-05-11T05:01:34;94900.38;;;8.03;76.41
33191;BME280;19554;42.652;23.364;2023-05-11T05:03:59;94891.06;;;8.01;76.23
33191;BME280;19554;42.652;23.364;2023-05-11T05:06:25;94903.03;;;8.08;76.51
33191;BME280;19554;42.652;23.364;2023-05-11T05:08:50;94924.84;;;8.11;76.56
33191;BME280;19554;42.652;23.364;2023-05-11T05:11:15;94861.75;;;7.65;77.09
33191;BME280;19554;42.652;23.364;2023-05-11T05:13:42;94901.97;;;8.10;77.07
33191;BME280;19554;42.652;23.364;2023-05-11T05:16:07;94905.41;;;8.00;77.57
33191;BME280;19554;42.652;23.364;2023-05-11T05:18:32;94911.28;;;8.07;77.22
33191;BME280;19554;42.652;23.364;2023-05-11T05:20:58;94914.19;;;8.05;77.59
33191;BME280;19554;42.652;23.364;2023-05-11T05:23:23;94901.16;;;7.99;78.09
33191;BME280;19554;42.652;23.364;2023-05-11T05:25:49;94912.34;;;8.16;78.20
33191;BME280;19554;42.652;23.364;2023-05-11T05:28:14;94860.22;;;7.95;77.94
33191;BME280;19554;42.652;23.364;2023-05-11T05:30:39;94912.34;;;8.21;77.61
33191;BME280;19554;42.652;23.364;2023-05-11T05:33:05;94917.66;;;8.26;77.80
33191;BME280;19554;42.652;23.364;2023-05-11T05:35:30;94911.28;;;8.22;78.20
33191;BME280;19554;42.652;23.364;2023-05-11T05:37:56;94915.00;;;8.16;78.55
33191;BME280;19554;42.652;23.364;2023-05-11T05:40:21;94900.13;;;8.25;78.15
33191;BME280;19554;42.652;23.364;2023-05-11T05:42:46;94906.28;;;8.41;77.33
33191;BME280;19554;42.652;23.364;2023-05-11T05:45:12;94899.56;;;8.23;77.25
33191;BME280;19554;42.652;23.364;2023-05-11T05:47:37;94905.97;;;8.27;76.93
33191;BME280;19554;42.652;23.364;2023-05-11T05:50:05;94861.28;;;7.89;77.64
33191;BME280;19554;42.652;23.364;2023-05-11T05:52:30;94917.44;;;8.38;77.24
33191;BME280;19554;42.652;23.364;2023-05-11T05:54:56;94921.38;;;8.30;76.67
33191;BME280;19554;42.652;23.364;2023-05-11T05:57:21;94934.91;;;7.98;77.82
33191;BME280;19554;42.652;23.364;2023-05-11T05:59:46;94913.34;;;7.84;77.79
33191;BME280;19554;42.652;23.364;2023-05-11T06:02:12;94933.88;;;8.04;77.69
33191;BME280;19554;42.652;23.364;2023-05-11T06:04:37;94950.84;;;7.88;77.72
33191;BME280;19554;42.652;23.364;2023-05-11T06:07:03;94935.66;;;7.78;77.78
33191;BME280;19554;42.652;23.364;2023-05-11T06:09:28;94929.84;;;7.87;77.61
33191;BME280;19554;42.652;23.364;2023-05-11T06:11:54;94943.13;;;7.87;77.35
33191;BME280;19554;42.652;23.364;2023-05-11T06:14:20;94947.41;;;7.98;77.05
33191;BME280;19554;42.652;23.364;2023-05-11T06:16:48;94944.22;;;8.01;76.82
33191;BME280;19554;42.652;23.364;2023-05-11T06:19:13;94946.31;;;7.89;77.24
33191;BME280;19554;42.652;23.364;2023-05-11T06:21:39;94947.66;;;7.91;77.64
33191;BME280;19554;42.652;23.364;2023-05-11T06:24:07;94952.16;;;7.86;78.21
33191;BME280;19554;42.652;23.364;2023-05-11T06:26:32;94954.81;;;7.86;78.39
33191;BME280;19554;42.652;23.364;2023-05-11T06:28:58;94946.34;;;7.99;78.29
33191;BME280;19554;42.652;23.364;2023-05-11T06:31:23;94938.88;;;7.91;77.99
33191;BME280;19554;42.652;23.364;2023-05-11T06:33:49;94962.84;;;8.06;77.65
33191;BME280;19554;42.652;23.364;2023-05-11T06:36:14;94932.50;;;7.87;77.87
33191;BME280;19554;42.652;23.364;2023-05-11T06:38:40;94954.84;;;7.91;78.46
33191;BME280;19554;42.652;23.364;2023-05-11T06:41:05;94944.78;;;8.08;78.05
33191;BME280;19554;42.652;23.364;2023-05-11T06:43:31;94966.59;;;8.15;78.01
33191;BME280;19554;42.652;23.364;2023-05-11T06:45:57;94949.28;;;8.07;78.31
33191;BME280;19554;42.652;23.364;2023-05-11T06:48:22;94964.50;;;8.27;77.82
33191;BME280;19554;42.652;23.364;2023-05-11T06:50:50;94961.28;;;8.36;77.15
33191;BME280;19554;42.652;23.364;2023-05-11T06:53:15;94962.88;;;8.26;77.22
33191;BME280;19554;42.652;23.364;2023-05-11T06:55:42;94949.50;;;7.96;78.02
33191;BME280;19554;42.652;23.364;2023-05-11T06:58:08;94935.66;;;7.73;78.46
33191;BME280;19554;42.652;23.364;2023-05-11T07:00:33;94891.22;;;7.53;78.58
33191;BME280;19554;42.652;23.364;2023-05-11T07:02:58;94901.09;;;7.78;78.39
33191;BME280;19554;42.652;23.364;2023-05-11T07:05:24;94961.81;;;8.22;77.56
33191;BME280;19554;42.652;23.364;2023-05-11T07:07:49;94922.19;;;8.11;77.11
33191;BME280;19554;42.652;23.364;2023-05-11T07:10:14;94956.03;;;8.46;76.44
33191;BME280;19554;42.652;23.364;2023-05-11T07:12:40;94946.69;;;8.43;76.43
33191;BME280;19554;42.652;23.364;2023-05-11T07:15:06;94974.09;;;8.64;75.91
33191;BME280;19554;42.652;23.364;2023-05-11T07:17:31;94958.66;;;8.61;75.16
33191;BME280;19554;42.652;23.364;2023-05-11T07:19:57;94957.63;;;8.62;74.90
33191;BME280;19554;42.652;23.364;2023-05-11T07:22:22;94955.75;;;8.63;74.80
33191;BME280;19554;42.652;23.364;2023-05-11T07:24:48;94963.47;;;8.74;74.62
33191;BME280;19554;42.652;23.364;2023-05-11T07:27:13;94858.09;;;7.97;74.01
33191;BME280;19554;42.652;23.364;2023-05-11T07:29:39;94971.19;;;8.76;73.77
33191;BME280;19554;42.652;23.364;2023-05-11T07:32:04;94967.19;;;8.84;73.40
33191;BME280;19554;42.652;23.364;2023-05-11T07:34:30;94961.59;;;8.90;73.29
33191;BME280;19554;42.652;23.364;2023-05-11T07:36:55;94915.81;;;8.78;72.87
33191;BME280;19554;42.652;23.364;2023-05-11T07:39:20;94972.47;;;9.19;72.11
33191;BME280;19554;42.652;23.364;2023-05-11T07:41:46;94966.84;;;9.26;71.63
33191;BME280;19554;42.652;23.364;2023-05-11T07:44:11;94891.63;;;8.54;71.57
33191;BME280;19554;42.652;23.364;2023-05-11T07:46:37;94962.91;;;8.98;72.57
33191;BME280;19554;42.652;23.364;2023-05-11T07:49:02;94968.22;;;9.18;72.44
33191;BME280;19554;42.652;23.364;2023-05-11T07:51:28;94967.69;;;9.21;71.51
33191;BME280;19554;42.652;23.364;2023-05-11T07:53:53;94956.44;;;9.45;70.14
33191;BME280;19554;42.652;23.364;2023-05-11T07:56:19;94958.22;;;9.60;69.71
33191;BME280;19554;42.652;23.364;2023-05-11T07:58:44;94957.97;;;9.61;68.71
33191;BME280;19554;42.652;23.364;2023-05-11T08:01:10;94973.34;;;9.80;68.26
33191;BME280;19554;42.652;23.364;2023-05-11T08:03:35;94957.34;;;9.80;67.81
33191;BME280;19554;42.652;23.364;2023-05-11T08:06:01;94964.81;;;9.78;67.14
33191;BME280;19554;42.652;23.364;2023-05-11T08:08:27;94974.25;;;9.55;66.92
33191;BME280;19554;42.652;23.364;2023-05-11T08:10:54;94963.31;;;9.56;68.04
33191;BME280;19554;42.652;23.364;2023-05-11T08:13:20;94957.34;;;9.80;66.27
33191;BME280;19554;42.652;23.364;2023-05-11T08:15:45;94950.16;;;9.85;65.35
33191;BME280;19554;42.652;23.364;2023-05-11T08:18:10;94945.00;;;9.99;65.75
33191;BME280;19554;42.652;23.364;2023-05-11T08:20:36;94941.34;;;9.85;64.93
33191;BME280;19554;42.652;23.364;2023-05-11T08:23:03;94974.00;;;10.16;64.38
33191;BME280;19554;42.652;23.364;2023-05-11T08:25:28;94987.13;;;10.02;64.26
33191;BME280;19554;42.652;23.364;2023-05-11T08:27:54;94951.44;;;9.93;65.09
33191;BME280;19554;42.652;23.364;2023-05-11T08:30:19;94944.03;;;9.85;64.98
33191;BME280;19554;42.652;23.364;2023-05-11T08:32:45;94929.66;;;9.70;64.78
33191;BME280;19554;42.652;23.364;2023-05-11T08:35:11;94969.16;;;10.18;63.53
33191;BME280;19554;42.652;23.364;2023-05-11T08:37:37;94965.41;;;10.29;63.72
33191;BME280;19554;42.652;23.364;2023-05-11T08:40:03;94958.31;;;10.04;63.26
33191;BME280;19554;42.652;23.364;2023-05-11T08:42:32;94973.47;;;10.14;63.77
33191;BME280;19554;42.652;23.364;2023-05-11T08:45:00;94944.94;;;10.09;64.80
33191;BME280;19554;42.652;23.364;2023-05-11T08:47:27;94939.56;;;10.19;64.18
33191;BME280;19554;42.652;23.364;2023-05-11T08:49:52;94979.13;;;10.52;63.06
33191;BME280;19554;42.652;23.364;2023-05-11T08:52:18;94956.81;;;10.32;63.16
33191;BME280;19554;42.652;23.364;2023-05-11T08:54:44;94960.09;;;10.63;62.99
33191;BME280;19554;42.652;23.364;2023-05-11T08:57:12;94959.53;;;10.66;62.98
33191;BME280;19554;42.652;23.364;2023-05-11T08:59:40;94935.06;;;10.54;62.67
33191;BME280;19554;42.652;23.364;2023-05-11T09:02:18;94950.94;;;10.75;62.48
33191;BME280;19554;42.652;23.364;2023-05-11T09:04:44;94948.13;;;10.56;62.98
33191;BME280;19554;42.652;23.364;2023-05-11T09:07:11;94949.44;;;10.58;63.12
33191;BME280;19554;42.652;23.364;2023-05-11T09:09:39;94915.31;;;10.55;63.50
33191;BME280;19554;42.652;23.364;2023-05-11T09:12:07;94929.34;;;10.37;63.07
33191;BME280;19554;42.652;23.364;2023-05-11T09:14:32;94943.09;;;10.49;64.30
33191;BME280;19554;42.652;23.364;2023-05-11T09:16:58;94945.94;;;10.63;64.36
33191;BME280;19554;42.652;23.364;2023-05-11T09:19:23;94949.97;;;10.60;64.20
33191;BME280;19554;42.652;23.364;2023-05-11T09:21:51;94941.59;;;10.38;65.61
33191;BME280;19554;42.652;23.364;2023-05-11T09:24:19;94942.00;;;10.55;65.45
33191;BME280;19554;42.652;23.364;2023-05-11T09:26:44;94941.69;;;10.62;65.59
33191;BME280;19554;42.652;23.364;2023-05-11T09:29:09;94934.44;;;10.33;65.70
33191;BME280;19554;42.652;23.364;2023-05-11T09:31:43;94942.38;;;10.38;66.53
33191;BME280;19554;42.652;23.364;2023-05-11T09:34:10;94952.19;;;10.48;65.90
33191;BME280;19554;42.652;23.364;2023-05-11T09:36:37;94968.13;;;10.58;66.09
33191;BME280;19554;42.652;23.364;2023-05-11T09:39:03;94933.69;;;10.17;67.52
33191;BME280;19554;42.652;23.364;2023-05-11T09:41:29;94964.03;;;10.32;66.37
33191;BME280;19554;42.652;23.364;2023-05-11T09:46:37;94952.25;;;10.38;66.54
33191;BME280;19554;42.652;23.364;2023-05-11T09:49:04;94947.00;;;10.28;66.66
33191;BME280;19554;42.652;23.364;2023-05-11T09:51:31;94951.63;;;10.07;67.32
33191;BME280;19554;42.652;23.364;2023-05-11T09:53:58;94878.81;;;9.62;68.65
33191;BME280;19554;42.652;23.364;2023-05-11T09:56:50;94945.00;;;9.99;68.04
33191;BME280;19554;42.652;23.364;2023-05-11T09:59:40;94939.97;;;9.92;68.92
33191;BME280;19554;42.652;23.364;2023-05-11T10:02:19;94934.34;;;9.99;69.13
33191;BME280;19554;42.652;23.364;2023-05-11T10:04:45;94929.97;;;10.13;68.89
33191;BME280;19554;42.652;23.364;2023-05-11T10:07:25;94927.81;;;10.26;68.10
33191;BME280;19554;42.652;23.364;2023-05-11T10:09:54;94928.81;;;10.35;67.60
33191;BME280;19554;42.652;23.364;2023-05-11T10:12:22;94923.50;;;10.30;67.06
33191;BME280;19554;42.652;23.364;2023-05-11T10:17:31;94877.31;;;10.34;66.72
33191;BME280;19554;42.652;23.364;2023-05-11T10:19:57;94908.06;;;10.61;66.53
33191;BME280;19554;42.652;23.364;2023-05-11T10:22:27;94912.06;;;10.63;66.25
33191;BME280;19554;42.652;23.364;2023-05-11T10:24:53;94917.63;;;10.67;65.57
33191;BME280;19554;42.652;23.364;2023-05-11T10:27:20;94876.22;;;10.40;65.13
33191;BME280;19554;42.652;23.364;2023-05-11T10:29:47;94901.75;;;10.81;64.50
33191;BME280;19554;42.652;23.364;2023-05-11T10:32:15;94890.41;;;10.94;64.09
33191;BME280;19554;42.652;23.364;2023-05-11T10:34:42;94907.28;;;11.13;63.19
33191;BME280;19554;42.652;23.364;2023-05-11T10:37:08;94896.72;;;11.03;63.08
33191;BME280;19554;42.652;23.364;2023-05-11T10:39:40;94893.03;;;10.99;62.31
33191;BME280;19554;42.652;23.364;2023-05-11T10:42:28;94887.25;;;11.16;62.71
33191;BME280;19554;42.652;23.364;2023-05-11T10:45:08;94892.69;;;11.30;62.82
33191;BME280;19554;42.652;23.364;2023-05-11T10:59:15;94901.91;;;11.43;61.90
33191;BME280;19554;42.652;23.364;2023-05-11T11:01:45;94887.00;;;11.36;61.84
33191;BME280;19554;42.652;23.364;2023-05-11T11:04:12;94881.31;;;11.43;61.55
33191;BME280;19554;42.652;23.364;2023-05-11T11:06:40;94879.63;;;11.52;61.32
33191;BME280;19554;42.652;23.364;2023-05-11T11:09:07;94882.75;;;11.78;61.13
33191;BME280;19554;42.652;23.364;2023-05-11T11:11:43;94893.78;;;11.72;60.67
33191;BME280;19554;42.652;23.364;2023-05-11T11:14:12;94884.09;;;11.76;61.40
33191;BME280;19554;42.652;23.364;2023-05-11T11:16:38;94903.44;;;11.73;60.91
33191;BME280;19554;42.652;23.364;2023-05-11T11:21:58;94882.56;;;11.51;62.68
33191;BME280;19554;42.652;23.364;2023-05-11T11:27:01;94785.25;;;11.33;61.01
33191;BME280;19554;42.652;23.364;2023-05-11T11:29:27;94871.81;;;11.75;61.40
33191;BME280;19554;42.652;23.364;2023-05-11T11:31:52;94885.72;;;11.77;61.83
33191;BME280;19554;42.652;23.364;2023-05-11T11:39:27;94870.00;;;11.94;60.51
33191;BME280;19554;42.652;23.364;2023-05-11T11:42:05;94879.88;;;12.13;60.30
33191;BME280;19554;42.652;23.364;2023-05-11T11:44:35;94872.06;;;12.16;60.05
33191;BME280;19554;42.652;23.364;2023-05-11T11:49:41;94874.97;;;12.20;60.11
33191;BME280;19554;42.652;23.364;2023-05-11T11:52:31;94859.06;;;12.09;59.59
33191;BME280;19554;42.652;23.364;2023-05-11T11:54:59;94867.09;;;12.09;60.27
33191;BME280;19554;42.652;23.364;2023-05-11T12:00:01;94865.28;;;12.05;60.41
33191;BME280;19554;42.652;23.364;2023-05-11T12:02:30;94866.22;;;11.95;60.85
33191;BME280;19554;42.652;23.364;2023-05-11T12:05:08;94881.06;;;11.88;60.61
33191;BME280;19554;42.652;23.364;2023-05-11T12:07:41;94864.91;;;11.74;61.04
33191;BME280;19554;42.652;23.364;2023-05-11T12:10:07;94875.59;;;11.74;61.00
33191;BME280;19554;42.652;23.364;2023-05-11T12:12:36;94870.06;;;11.89;60.82
33191;BME280;19554;42.652;23.364;2023-05-11T12:15:02;94830.75;;;11.66;60.55
33191;BME280;19554;42.652;23.364;2023-05-11T12:17:28;94860.13;;;11.71;61.48
33191;BME280;19554;42.652;23.364;2023-05-11T12:19:54;94807.50;;;11.47;61.25
33191;BME280;19554;42.652;23.364;2023-05-11T12:22:24;94871.72;;;11.85;61.50
33191;BME280;19554;42.652;23.364;2023-05-11T12:24:53;94813.19;;;11.41;61.39
33191;BME280;19554;42.652;23.364;2023-05-11T12:27:19;94852.66;;;11.49;62.14
33191;BME280;19554;42.652;23.364;2023-05-11T12:29:49;94821.66;;;11.05;63.05
33191;BME280;19554;42.652;23.364;2023-05-11T12:32:24;94815.13;;;11.35;62.32
33191;BME280;19554;42.652;23.364;2023-05-11T12:35:01;94843.69;;;11.58;61.61
33191;BME280;19554;42.652;23.364;2023-05-11T12:37:29;94830.03;;;11.41;61.20
33191;BME280;19554;42.652;23.364;2023-05-11T12:39:55;94842.91;;;11.39;61.88
33191;BME280;19554;42.652;23.364;2023-05-11T12:42:21;94824.53;;;11.51;62.01
33191;BME280;19554;42.652;23.364;2023-05-11T12:44:47;94815.91;;;11.59;62.00
33191;BME280;19554;42.652;23.364;2023-05-11T12:47:13;94833.81;;;11.78;60.95
33191;BME280;19554;42.652;23.364;2023-05-11T12:49:40;94758.16;;;11.39;60.11
33191;BME280;19554;42.652;23.364;2023-05-11T12:52:06;94829.75;;;11.61;60.18
33191;BME280;19554;42.652;23.364;2023-05-11T12:54:35;94823.69;;;11.75;60.20
33191;BME280;19554;42.652;23.364;2023-05-11T12:57:03;94819.50;;;11.69;60.38
33191;BME280;19554;42.652;23.364;2023-05-11T13:02:03;94784.44;;;11.51;60.06
33191;BME280;19554;42.652;23.364;2023-05-11T13:04:29;94814.00;;;11.79;59.89
33191;BME280;19554;42.652;23.364;2023-05-11T13:06:55;94798.03;;;11.74;59.72
33191;BME280;19554;42.652;23.364;2023-05-11T13:09:24;94807.88;;;11.78;59.64
33191;BME280;19554;42.652;23.364;2023-05-11T13:12:26;94807.88;;;11.78;60.36
33191;BME280;19554;42.652;23.364;2023-05-11T13:15:10;94777.28;;;11.66;60.63
33191;BME280;19554;42.652;23.364;2023-05-11T13:17:41;94806.56;;;11.76;60.79
33191;BME280;19554;42.652;23.364;2023-05-11T13:22:43;94810.22;;;11.85;60.79
33191;BME280;19554;42.652;23.364;2023-05-11T13:25:08;94805.88;;;11.89;60.83
33191;BME280;19554;42.652;23.364;2023-05-11T13:27:34;94795.09;;;11.94;60.29
33191;BME280;19554;42.652;23.364;2023-05-11T13:30:01;94709.69;;;11.46;60.64
33191;BME280;19554;42.652;23.364;2023-05-11T13:32:27;94784.25;;;12.04;59.89
33191;BME280;19554;42.652;23.364;2023-05-11T13:34:53;94775.63;;;12.07;59.51
33191;BME280;19554;42.652;23.364;2023-05-11T13:37:18;94800.75;;;12.25;59.05
33191;BME280;19554;42.652;23.364;2023-05-11T13:39:43;94828.63;;;12.24;58.96
33191;BME280;19554;42.652;23.364;2023-05-11T13:42:09;94790.00;;;12.12;59.60